createdAt,value
2022-08-29T00:00:20.827Z,23.07
2022-08-29T00:02:53.477Z,22.83
2022-08-29T00:05:27.357Z,22.97
2022-08-29T00:07:55.863Z,22.90
2022-08-29T00:10:23.465Z,22.87
2022-08-29T00:12:51.177Z,22.93
2022-08-29T00:15:20.774Z,22.81
2022-08-29T00:17:49.165Z,22.83
2022-08-29T00:20:30.284Z,22.55
2022-08-29T00:23:05.996Z,22.65
2022-08-29T00:25:33.488Z,22.64
2022-08-29T00:28:01.660Z,22.70
2022-08-29T00:30:29.556Z,22.56
2022-08-29T00:32:58.052Z,22.68
2022-08-29T00:35:32.991Z,22.72
2022-08-29T00:38:05.557Z,22.77
2022-08-29T00:40:51.120Z,22.67
2022-08-29T00:43:27.113Z,22.76
2022-08-29T00:46:57.103Z,22.53
2022-08-29T00:49:48.572Z,22.65
2022-08-29T00:52:34.927Z,22.73
2022-08-29T00:55:11.103Z,22.42
2022-08-29T00:57:48.043Z,22.41
2022-08-29T01:00:17.443Z,22.53
2022-08-29T01:02:45.098Z,22.51
2022-08-29T01:05:17.918Z,22.32
2022-08-29T01:07:46.883Z,22.37
2022-08-29T01:10:36.960Z,22.42
2022-08-29T01:13:07.496Z,22.32
2022-08-29T01:15:37.176Z,22.31
2022-08-29T01:18:06.803Z,22.19
2022-08-29T01:21:29.040Z,22.25
2022-08-29T01:24:39.660Z,22.29
2022-08-29T01:27:07.765Z,22.51
2022-08-29T01:29:36.120Z,22.19
2022-08-29T01:32:05.777Z,22.29
2022-08-29T01:34:33.333Z,22.03
2022-08-29T01:37:08.396Z,22.06
2022-08-29T01:39:42.831Z,22.04
2022-08-29T01:42:23.042Z,21.94
2022-08-29T01:45:02.904Z,21.69
2022-08-29T01:47:35.272Z,21.72
2022-08-29T01:50:15.352Z,21.78
2022-08-29T01:52:43.528Z,21.93
2022-08-29T01:55:11.525Z,21.97
2022-08-29T01:57:40.957Z,21.92
2022-08-29T02:00:11.868Z,21.77
2022-08-29T02:02:41.099Z,21.89
2022-08-29T02:05:09.811Z,21.85
2022-08-29T02:07:37.213Z,21.73
2022-08-29T02:10:07.567Z,21.62
2022-08-29T02:12:40.922Z,21.74
2022-08-29T02:15:09.517Z,21.65
2022-08-29T02:17:38.375Z,21.61
2022-08-29T02:20:09.129Z,21.44
2022-08-29T02:22:38.939Z,21.62
2022-08-29T02:25:29.832Z,21.53
2022-08-29T02:27:57.696Z,21.63
2022-08-29T02:30:25.726Z,21.49
2022-08-29T02:32:54.038Z,21.61
2022-08-29T02:35:22.643Z,21.58
2022-08-29T02:37:52.387Z,21.37
2022-08-29T02:40:19.961Z,21.37
2022-08-29T02:42:53.728Z,21.29
2022-08-29T02:45:23.677Z,21.32
2022-08-29T02:47:51.429Z,21.38
2022-08-29T02:50:19.241Z,21.30
2022-08-29T02:52:47.553Z,21.30
2022-08-29T02:55:20.389Z,21.32
2022-08-29T02:57:48.077Z,21.08
2022-08-29T03:00:25.404Z,21.34
2022-08-29T03:02:56.144Z,21.14
2022-08-29T03:05:30.737Z,21.11
2022-08-29T03:07:58.999Z,21.12
2022-08-29T03:10:27.139Z,21.24
2022-08-29T03:12:56.527Z,21.20
2022-08-29T03:15:24.844Z,21.33
2022-08-29T03:17:52.789Z,21.22
2022-08-29T03:20:24.072Z,21.02
2022-08-29T03:22:54.108Z,21.01
2022-08-29T03:25:24.562Z,20.98
2022-08-29T03:27:52.927Z,20.85
2022-08-29T03:30:21.493Z,20.84
2022-08-29T03:32:52.145Z,20.92
2022-08-29T03:35:19.969Z,20.91
2022-08-29T03:37:47.653Z,20.95
2022-08-29T03:40:16.040Z,20.99
2022-08-29T03:42:43.410Z,21.00
2022-08-29T03:45:16.215Z,21.07
2022-08-29T03:47:43.703Z,20.87
2022-08-29T03:50:15.016Z,20.94
2022-08-29T03:52:44.181Z,20.83
2022-08-29T03:55:13.791Z,20.89
2022-08-29T03:57:41.315Z,20.64
2022-08-29T04:00:17.270Z,20.76
2022-08-29T04:02:47.939Z,20.58
2022-08-29T04:05:18.115Z,20.36
2022-08-29T04:07:57.973Z,20.43
2022-08-29T04:10:41.317Z,20.48
2022-08-29T04:13:11.185Z,20.57
2022-08-29T04:15:42.798Z,20.58
2022-08-29T04:18:11.950Z,20.48
2022-08-29T04:20:44.972Z,20.40
2022-08-29T04:23:15.248Z,20.46
2022-08-29T04:25:44.555Z,20.34
2022-08-29T04:28:14.760Z,20.38
2022-08-29T04:30:51.292Z,20.43
2022-08-29T04:33:25.700Z,20.44
2022-08-29T04:35:53.679Z,20.49
2022-08-29T04:38:21.200Z,20.30
2022-08-29T04:40:48.845Z,20.42
2022-08-29T04:43:16.153Z,20.40
2022-08-29T04:45:43.509Z,20.24
2022-08-29T04:48:11.016Z,20.48
2022-08-29T04:50:39.097Z,20.42
2022-08-29T04:53:06.492Z,20.26
2022-08-29T04:55:33.816Z,20.29
2022-08-29T04:58:01.496Z,20.34
2022-08-29T05:00:30.633Z,20.26
2022-08-29T05:02:58.507Z,20.19
2022-08-29T05:05:26.568Z,20.31
2022-08-29T05:07:53.928Z,20.24
2022-08-29T05:10:22.599Z,20.38
2022-08-29T05:12:50.126Z,20.44
2022-08-29T05:15:18.653Z,20.08
2022-08-29T05:17:46.109Z,20.16
2022-08-29T05:20:14.249Z,20.08
2022-08-29T05:22:42.856Z,20.29
2022-08-29T05:25:17.944Z,20.10
2022-08-29T05:27:46.786Z,20.27
2022-08-29T05:30:34.010Z,20.08
2022-08-29T05:33:02.213Z,20.26
2022-08-29T05:35:29.609Z,20.27
2022-08-29T05:37:56.979Z,20.39
2022-08-29T05:40:24.651Z,20.48
2022-08-29T05:42:54.434Z,20.40
2022-08-29T05:45:22.396Z,20.34
2022-08-29T05:47:51.035Z,20.36
2022-08-29T05:50:18.531Z,20.29
2022-08-29T05:52:46.029Z,19.97
2022-08-29T05:55:13.495Z,20.17
2022-08-29T05:57:41.672Z,20.16
2022-08-29T06:00:12.240Z,20.25
2022-08-29T06:02:39.804Z,20.29
2022-08-29T06:05:10.599Z,20.12
2022-08-29T06:07:38.121Z,20.33
2022-08-29T06:10:06.917Z,20.34
2022-08-29T06:12:35.584Z,20.30
2022-08-29T06:15:03.431Z,20.41
2022-08-29T06:17:34.008Z,20.57
2022-08-29T06:20:01.490Z,20.53
2022-08-29T06:22:28.816Z,20.78
2022-08-29T06:24:57.685Z,20.94
2022-08-29T06:27:25.951Z,20.89
2022-08-29T06:29:53.399Z,20.92
2022-08-29T06:32:20.779Z,20.74
2022-08-29T06:34:48.148Z,20.77
2022-08-29T06:37:15.606Z,20.75
2022-08-29T06:39:43.026Z,20.96
2022-08-29T06:42:10.422Z,21.08
2022-08-29T06:44:42.479Z,21.10
2022-08-29T06:47:12.088Z,21.01
2022-08-29T06:49:39.579Z,20.83
2022-08-29T06:52:06.944Z,20.92
2022-08-29T06:54:34.296Z,21.06
2022-08-29T06:57:01.625Z,20.95
2022-08-29T06:59:28.936Z,21.13
2022-08-29T07:01:56.436Z,21.38
2022-08-29T07:04:26.469Z,21.40
2022-08-29T07:06:54.579Z,21.32
2022-08-29T07:09:22.037Z,21.50
2022-08-29T07:11:49.341Z,21.48
2022-08-29T07:14:16.704Z,21.62
2022-08-29T07:16:44.042Z,21.56
2022-08-29T07:19:12.135Z,21.64
2022-08-29T07:21:39.955Z,21.62
2022-08-29T07:24:08.732Z,21.75
2022-08-29T07:26:42.964Z,21.87
2022-08-29T07:29:20.342Z,21.79
2022-08-29T07:31:49.008Z,21.99
2022-08-29T07:34:36.838Z,22.06
2022-08-29T07:37:28.835Z,21.99
2022-08-29T07:40:09.464Z,21.99
2022-08-29T07:42:53.364Z,22.19
2022-08-29T07:45:35.267Z,22.32
2022-08-29T07:48:11.218Z,22.49
2022-08-29T07:50:59.446Z,22.44
2022-08-29T07:53:39.541Z,22.42
2022-08-29T07:56:30.323Z,22.47
2022-08-29T07:59:14.081Z,22.55
2022-08-29T08:01:48.377Z,22.45
2022-08-29T08:04:57.853Z,22.71
2022-08-29T08:07:44.867Z,22.70
2022-08-29T08:10:26.252Z,22.72
2022-08-29T08:13:17.829Z,22.87
2022-08-29T08:16:05.193Z,22.86
2022-08-29T08:18:57.016Z,23.07
2022-08-29T08:21:49.647Z,23.23
2022-08-29T08:27:26.891Z,23.38
2022-08-29T08:30:19.959Z,23.46
2022-08-29T08:33:00.190Z,23.47
2022-08-29T08:35:55.241Z,23.55
2022-08-29T08:38:35.972Z,23.74
2022-08-29T08:41:55.284Z,23.65
2022-08-29T08:45:33.667Z,23.73
2022-08-29T08:48:48.221Z,23.80
2022-08-29T08:51:33.708Z,23.75
2022-08-29T08:54:49.806Z,23.96
2022-08-29T08:57:39.908Z,23.98
2022-08-29T09:00:32.736Z,24.08
2022-08-29T09:04:21.528Z,24.10
2022-08-29T09:07:55.547Z,24.07
2022-08-29T09:11:34.016Z,24.24
2022-08-29T09:15:03.156Z,24.20
2022-08-29T09:18:21.841Z,24.41
2022-08-29T09:21:29.942Z,24.44
2022-08-29T09:24:43.053Z,24.55
2022-08-29T09:27:38.659Z,24.67
2022-08-29T09:30:36.849Z,24.63
2022-08-29T09:33:24.685Z,24.77
2022-08-29T09:36:03.372Z,24.83
2022-08-29T09:38:49.539Z,24.92
2022-08-29T09:41:34.264Z,25.15
2022-08-29T09:44:44.236Z,24.95
2022-08-29T09:47:41.781Z,25.26
2022-08-29T09:50:32.813Z,25.24
2022-08-29T09:53:34.147Z,25.25
2022-08-29T09:56:34.629Z,25.50
2022-08-29T09:59:36.029Z,25.62
2022-08-29T10:03:07.365Z,25.78
2022-08-29T10:06:11.911Z,25.67
2022-08-29T10:10:01.393Z,25.78
2022-08-29T10:13:26.911Z,26.09
2022-08-29T10:16:38.004Z,26.15
2022-08-29T10:19:34.299Z,26.39
2022-08-29T10:22:37.975Z,26.49
2022-08-29T10:25:46.099Z,26.53
2022-08-29T10:29:12.227Z,26.57
2022-08-29T10:32:25.714Z,26.80
2022-08-29T10:36:09.152Z,26.85
2022-08-29T10:39:19.416Z,27.01
2022-08-29T10:42:43.677Z,27.24
2022-08-29T10:46:40.163Z,27.34
2022-08-29T10:50:10.197Z,27.40
2022-08-29T10:54:02.710Z,27.86
2022-08-29T10:57:00.932Z,28.09
2022-08-29T11:00:28.072Z,28.11
2022-08-29T11:03:20.625Z,28.06
2022-08-29T11:09:59.357Z,28.65
2022-08-29T11:13:39.928Z,28.79
2022-08-29T11:17:04.337Z,28.92
2022-08-29T11:20:42.219Z,28.97
2022-08-29T11:23:52.799Z,29.25
2022-08-29T11:26:45.351Z,29.51
2022-08-29T11:30:18.031Z,29.50
2022-08-29T11:34:13.656Z,29.79
2022-08-29T11:38:19.108Z,30.07
2022-08-29T11:41:42.234Z,29.97
2022-08-29T11:44:31.218Z,30.32
2022-08-29T11:47:46.226Z,30.41
2022-08-29T11:50:23.570Z,30.47
2022-08-29T11:53:48.314Z,30.39
2022-08-29T11:56:41.663Z,30.76
2022-08-29T12:03:00.974Z,30.97
2022-08-29T12:06:06.545Z,31.14
2022-08-29T12:09:41.140Z,31.29
2022-08-29T12:12:49.154Z,31.29
2022-08-29T12:16:13.031Z,31.52
2022-08-29T12:19:08.749Z,31.52
2022-08-29T12:21:55.259Z,31.57
2022-08-29T12:24:57.255Z,31.90
2022-08-29T12:28:35.943Z,31.98
2022-08-29T12:32:32.435Z,32.02
2022-08-29T12:36:01.107Z,32.33
2022-08-29T12:39:53.351Z,32.58
2022-08-29T12:43:19.827Z,32.69
2022-08-29T12:49:31.973Z,33.33
2022-08-29T12:53:13.061Z,33.14
2022-08-29T12:56:15.563Z,33.28
2022-08-29T12:59:18.324Z,33.06
2022-08-29T13:02:43.240Z,33.60
2022-08-29T13:05:40.920Z,33.36
2022-08-29T13:09:06.381Z,33.64
2022-08-29T13:12:50.901Z,33.90
2022-08-29T13:15:55.401Z,33.73
2022-08-29T13:19:12.453Z,33.87
2022-08-29T13:22:47.254Z,34.19
2022-08-29T13:26:50.671Z,33.85
2022-08-29T13:30:24.738Z,34.10
2022-08-29T13:33:55.042Z,34.21
2022-08-29T13:37:16.459Z,34.06
2022-08-29T13:41:02.396Z,34.57
2022-08-29T13:44:29.520Z,34.59
2022-08-29T13:48:00.363Z,34.46
2022-08-29T13:51:16.783Z,34.58
2022-08-29T13:55:11.574Z,34.64
2022-08-29T13:58:00.843Z,34.72
2022-08-29T14:02:07.953Z,34.81
2022-08-29T14:08:47.301Z,34.45
2022-08-29T14:11:58.688Z,35.07
2022-08-29T14:15:22.896Z,34.55
2022-08-29T14:23:19.114Z,34.81
2022-08-29T14:26:23.884Z,34.73
2022-08-29T14:29:33.442Z,34.87
2022-08-29T14:32:37.743Z,34.76
2022-08-29T14:35:54.577Z,34.59
2022-08-29T14:39:11.664Z,34.87
2022-08-29T14:43:00.158Z,35.00
2022-08-29T14:46:23.126Z,34.92
2022-08-29T14:53:10.651Z,34.93
2022-08-29T15:01:15.738Z,34.80
2022-08-29T15:04:36.253Z,34.98
2022-08-29T15:07:24.076Z,34.74
2022-08-29T15:10:28.711Z,35.08
2022-08-29T15:13:21.753Z,35.19
2022-08-29T15:16:42.089Z,34.87
2022-08-29T15:23:05.843Z,34.92
2022-08-29T15:25:59.311Z,34.88
2022-08-29T15:28:48.784Z,34.84
2022-08-29T15:31:34.182Z,34.78
2022-08-29T15:34:35.009Z,34.78
2022-08-29T15:37:37.994Z,34.41
2022-08-29T15:40:45.913Z,33.95
2022-08-29T15:44:04.523Z,34.02
2022-08-29T15:47:16.940Z,34.17
2022-08-29T15:49:56.661Z,34.18
2022-08-29T15:53:36.259Z,33.90
2022-08-29T15:56:35.558Z,34.17
2022-08-29T15:59:41.101Z,34.11
2022-08-29T16:02:44.820Z,33.96
2022-08-29T16:05:36.845Z,33.66
2022-08-29T16:08:17.553Z,33.56
2022-08-29T16:11:22.914Z,33.52
2022-08-29T16:17:16.872Z,33.00
2022-08-29T16:20:03.558Z,32.96
2022-08-29T16:23:09.234Z,33.06
2022-08-29T16:26:25.946Z,33.07
2022-08-29T16:29:30.434Z,32.83
2022-08-29T16:32:24.319Z,32.67
2022-08-29T16:35:27.341Z,32.45
2022-08-29T16:38:28.883Z,32.59
2022-08-29T16:41:20.973Z,32.19
2022-08-29T16:44:24.125Z,32.34
2022-08-29T16:47:17.950Z,32.13
2022-08-29T16:49:50.479Z,32.08
2022-08-29T16:52:27.153Z,32.03
2022-08-29T16:55:23.487Z,31.97
2022-08-29T16:58:28.551Z,32.19
2022-08-29T17:01:38.058Z,32.10
2022-08-29T17:04:52.368Z,32.06
2022-08-29T17:07:49.071Z,31.75
2022-08-29T17:10:49.511Z,31.72
2022-08-29T17:13:43.686Z,31.67
2022-08-29T17:16:24.240Z,31.55
2022-08-29T17:19:11.778Z,31.27
2022-08-29T17:22:07.199Z,31.50
2022-08-29T17:25:08.543Z,31.28
2022-08-29T17:28:00.859Z,31.17
2022-08-29T17:31:19.925Z,31.19
2022-08-29T17:34:12.400Z,31.14
2022-08-29T17:37:00.128Z,31.02
2022-08-29T17:39:55.533Z,30.96
2022-08-29T17:42:59.342Z,30.73
2022-08-29T17:46:03.922Z,30.79
2022-08-29T17:49:21.767Z,30.49
2022-08-29T17:52:24.160Z,30.67
2022-08-29T17:55:23.299Z,30.59
2022-08-29T17:58:14.818Z,30.56
2022-08-29T18:00:56.452Z,30.36
2022-08-29T18:03:41.476Z,30.28
2022-08-29T18:06:48.153Z,30.35
2022-08-29T18:09:43.012Z,30.27
2022-08-29T18:12:35.599Z,30.29
2022-08-29T18:15:40.537Z,30.32
2022-08-29T18:18:38.714Z,30.17
2022-08-29T18:21:34.332Z,30.00
2022-08-29T18:24:27.288Z,29.98
2022-08-29T18:27:17.171Z,30.02
2022-08-29T18:30:14.032Z,29.80
2022-08-29T18:32:58.057Z,29.81
2022-08-29T18:36:00.134Z,29.77
2022-08-29T18:38:47.120Z,29.83
2022-08-29T18:41:26.283Z,29.65
2022-08-29T18:44:06.845Z,29.59
2022-08-29T18:47:02.670Z,29.59
2022-08-29T18:49:56.650Z,29.38
2022-08-29T18:52:54.922Z,29.24
2022-08-29T18:55:52.346Z,29.32
2022-08-29T18:59:08.174Z,29.26
2022-08-29T19:01:49.753Z,29.23
2022-08-29T19:04:51.418Z,29.32
2022-08-29T19:07:55.964Z,29.22
2022-08-29T19:10:48.028Z,29.13
2022-08-29T19:13:37.807Z,29.07
2022-08-29T19:16:41.503Z,28.98
2022-08-29T19:19:55.104Z,28.99
2022-08-29T19:23:07.631Z,28.95
2022-08-29T19:26:26.881Z,28.95
2022-08-29T19:32:26.924Z,28.78
2022-08-29T19:35:21.314Z,28.59
2022-08-29T19:38:49.742Z,28.61
2022-08-29T19:42:03.054Z,28.53
2022-08-29T19:45:17.903Z,28.50
2022-08-29T19:48:27.778Z,28.44
2022-08-29T19:51:21.046Z,28.42
2022-08-29T19:54:18.011Z,28.27
2022-08-29T19:57:17.907Z,28.32
2022-08-29T20:00:13.973Z,28.27
2022-08-29T20:03:25.732Z,28.24
2022-08-29T20:06:08.855Z,28.12
2022-08-29T20:08:53.710Z,28.14
2022-08-29T20:11:33.246Z,27.97
2022-08-29T20:14:44.872Z,27.87
2022-08-29T20:17:30.500Z,27.88
2022-08-29T20:20:19.508Z,27.78
2022-08-29T20:23:01.684Z,27.68
2022-08-29T20:25:35.715Z,27.85
2022-08-29T20:28:22.936Z,27.81
2022-08-29T20:30:58.620Z,27.38
2022-08-29T20:33:48.776Z,27.60
2022-08-29T20:36:43.165Z,27.78
2022-08-29T20:39:31.732Z,27.52
2022-08-29T20:42:11.992Z,27.33
2022-08-29T20:44:50.801Z,27.44
2022-08-29T20:47:29.021Z,27.19
2022-08-29T20:50:06.911Z,27.07
2022-08-29T20:52:48.247Z,27.33
2022-08-29T20:55:25.891Z,27.30
2022-08-29T20:57:59.495Z,27.17
2022-08-29T21:00:29.645Z,26.99
2022-08-29T21:03:21.953Z,26.84
2022-08-29T21:05:57.104Z,26.99
2022-08-29T21:09:02.702Z,26.72
2022-08-29T21:11:35.220Z,26.82
2022-08-29T21:14:07.695Z,26.75
2022-08-29T21:16:51.952Z,26.83
2022-08-29T21:19:34.046Z,26.83
2022-08-29T21:22:16.456Z,26.74
2022-08-29T21:24:58.248Z,26.71
2022-08-29T21:27:34.102Z,26.73
2022-08-29T21:30:08.213Z,26.65
2022-08-29T21:32:50.010Z,26.63
2022-08-29T21:35:32.622Z,26.44
2022-08-29T21:38:20.560Z,26.27
2022-08-29T21:41:00.104Z,26.35
2022-08-29T21:43:45.020Z,26.46
2022-08-29T21:46:42.692Z,26.38
2022-08-29T21:49:27.199Z,26.31
2022-08-29T21:52:00.793Z,26.25
2022-08-29T21:54:42.791Z,26.30
2022-08-29T21:57:40.384Z,26.18
2022-08-29T22:00:16.621Z,26.29
2022-08-29T22:03:07.814Z,26.23
2022-08-29T22:05:43.854Z,26.02
2022-08-29T22:08:32.956Z,26.18
2022-08-29T22:11:25.727Z,26.11
2022-08-29T22:14:17.536Z,26.07
2022-08-29T22:16:52.825Z,26.02
2022-08-29T22:19:31.396Z,25.78
2022-08-29T22:22:05.961Z,25.78
2022-08-29T22:24:42.235Z,25.83
2022-08-29T22:27:25.051Z,25.65
2022-08-29T22:30:05.610Z,25.67
2022-08-29T22:32:38.757Z,25.56
2022-08-29T22:35:22.081Z,25.44
2022-08-29T22:38:05.826Z,25.31
2022-08-29T22:40:52.885Z,25.22
2022-08-29T22:43:29.819Z,25.43
2022-08-29T22:46:22.709Z,25.05
2022-08-29T22:48:58.044Z,25.26
2022-08-29T22:51:34.302Z,25.14
2022-08-29T22:54:36.649Z,25.37
2022-08-29T22:57:28.897Z,25.30
2022-08-29T23:00:07.974Z,25.30
2022-08-29T23:02:41.781Z,25.00
2022-08-29T23:05:26.905Z,25.03
2022-08-29T23:08:02.513Z,25.09
2022-08-29T23:10:49.121Z,24.65
2022-08-29T23:13:28.190Z,25.04
2022-08-29T23:16:09.630Z,24.81
2022-08-29T23:18:48.581Z,24.84
2022-08-29T23:21:28.144Z,24.80
2022-08-29T23:24:09.810Z,24.68
2022-08-29T23:27:01.357Z,24.55
2022-08-29T23:29:37.006Z,24.59
2022-08-29T23:32:31.424Z,24.64
2022-08-29T23:35:09.274Z,24.77
2022-08-29T23:37:45.396Z,24.69
2022-08-29T23:40:29.907Z,24.53
2022-08-29T23:43:12.414Z,24.45
2022-08-29T23:45:44.594Z,24.44
2022-08-29T23:48:22.951Z,24.36
2022-08-29T23:51:00.296Z,24.51
2022-08-29T23:53:43.729Z,24.45
2022-08-29T23:56:27.162Z,24.33
2022-08-29T23:59:09.568Z,24.37
